createdAt,value
2023-07-10T00:00:53.778Z,0.00
2023-07-10T00:01:53.781Z,0.00
2023-07-10T00:02:53.825Z,0.00
2023-07-10T00:03:53.861Z,0.00
2023-07-10T00:04:53.788Z,0.00
2023-07-10T00:05:53.821Z,0.00
2023-07-10T00:06:53.858Z,0.00
2023-07-10T00:07:53.821Z,0.00
2023-07-10T00:08:53.830Z,0.00
2023-07-10T00:09:53.849Z,0.00
2023-07-10T00:10:53.881Z,0.00
2023-07-10T00:11:53.918Z,0.00
2023-07-10T00:12:53.888Z,0.00
2023-07-10T00:13:53.959Z,0.00
2023-07-10T00:14:53.920Z,0.00
2023-07-10T00:15:53.926Z,0.00
2023-07-10T00:16:54.016Z,0.00
2023-07-10T00:17:54.009Z,0.00
2023-07-10T00:18:53.997Z,0.00
2023-07-10T00:19:54.019Z,0.00
2023-07-10T00:20:54.014Z,0.00
2023-07-10T00:21:54.029Z,0.00
2023-07-10T00:22:54.066Z,0.00
2023-07-10T00:23:54.055Z,0.00
2023-07-10T00:24:54.082Z,0.00
2023-07-10T00:25:54.078Z,0.00
2023-07-10T00:26:54.086Z,0.00
2023-07-10T00:27:54.116Z,0.00
2023-07-10T00:28:54.135Z,0.00
2023-07-10T00:29:54.176Z,0.00
2023-07-10T00:30:54.156Z,0.00
2023-07-10T00:31:54.124Z,0.00
2023-07-10T00:32:54.200Z,0.00
2023-07-10T00:33:54.134Z,0.00
2023-07-10T00:34:54.145Z,0.00
2023-07-10T00:35:54.150Z,0.00
2023-07-10T00:36:54.186Z,0.00
2023-07-10T00:37:54.199Z,0.00
2023-07-10T00:38:54.223Z,0.00
2023-07-10T00:39:54.204Z,0.00
2023-07-10T00:40:54.209Z,0.00
2023-07-10T00:41:54.245Z,0.00
2023-07-10T00:42:54.255Z,0.00
2023-07-10T00:43:54.284Z,0.00
2023-07-10T00:44:54.268Z,0.00
2023-07-10T00:45:54.312Z,0.00
2023-07-10T00:46:54.458Z,0.00
2023-07-10T00:47:54.406Z,0.00
2023-07-10T00:48:54.390Z,0.00
2023-07-10T00:49:54.409Z,0.00
2023-07-10T00:50:54.390Z,0.00
2023-07-10T00:51:54.418Z,0.00
2023-07-10T00:52:54.444Z,0.00
2023-07-10T00:53:54.470Z,0.00
2023-07-10T00:54:54.495Z,0.00
2023-07-10T00:55:54.526Z,0.00
2023-07-10T00:56:54.510Z,0.00
2023-07-10T00:57:54.535Z,0.00
2023-07-10T00:58:54.562Z,0.00
2023-07-10T00:59:54.598Z,0.00
2023-07-10T01:00:54.624Z,0.00
2023-07-10T01:01:54.613Z,0.00
2023-07-10T01:02:54.692Z,0.00
2023-07-10T01:03:54.611Z,0.00
2023-07-10T01:04:54.579Z,0.00
2023-07-10T01:05:54.616Z,0.00
2023-07-10T01:06:54.642Z,0.00
2023-07-10T01:07:54.606Z,0.00
2023-07-10T01:08:54.638Z,0.00
2023-07-10T01:09:54.678Z,0.00
2023-07-10T01:10:54.695Z,0.00
2023-07-10T01:11:54.722Z,0.00
2023-07-10T01:12:54.738Z,0.00
2023-07-10T01:13:54.816Z,0.00
2023-07-10T01:14:54.756Z,0.00
2023-07-10T01:15:54.772Z,0.00
2023-07-10T01:16:54.825Z,0.00
2023-07-10T01:17:54.881Z,0.00
2023-07-10T01:18:54.825Z,0.00
2023-07-10T01:19:54.835Z,0.00
2023-07-10T01:20:54.861Z,0.00
2023-07-10T01:21:54.881Z,0.00
2023-07-10T01:22:54.869Z,0.00
2023-07-10T01:23:54.882Z,0.00
2023-07-10T01:24:54.913Z,0.00
2023-07-10T01:25:54.939Z,0.00
2023-07-10T01:26:54.959Z,0.00
2023-07-10T01:27:54.939Z,0.00
2023-07-10T01:28:54.956Z,0.00
2023-07-10T01:29:54.971Z,0.00
2023-07-10T01:30:55.007Z,0.00
2023-07-10T01:31:55.005Z,0.00
2023-07-10T01:32:55.026Z,0.00
2023-07-10T01:33:55.035Z,0.00
2023-07-10T01:34:55.046Z,0.00
2023-07-10T01:35:55.093Z,0.00
2023-07-10T01:36:55.068Z,0.00
2023-07-10T01:37:55.101Z,0.00
2023-07-10T01:38:55.107Z,0.00
2023-07-10T01:39:55.132Z,0.00
2023-07-10T01:40:55.158Z,0.00
2023-07-10T01:41:55.133Z,0.00
2023-07-10T01:42:55.154Z,0.00
2023-07-10T01:43:55.165Z,0.00
2023-07-10T01:44:55.200Z,0.00
2023-07-10T01:45:55.228Z,0.00
2023-07-10T01:46:55.252Z,0.00
2023-07-10T01:47:55.354Z,0.00
2023-07-10T01:48:55.352Z,0.00
2023-07-10T01:49:55.273Z,0.00
2023-07-10T01:50:55.238Z,0.00
2023-07-10T01:51:55.209Z,0.00
2023-07-10T01:52:55.240Z,0.00
2023-07-10T01:53:55.265Z,0.00
2023-07-10T01:54:57.323Z,0.00
2023-07-10T01:55:55.288Z,0.00
2023-07-10T01:56:55.293Z,0.00
2023-07-10T01:57:55.326Z,0.00
2023-07-10T01:58:55.350Z,0.00
2023-07-10T01:59:55.378Z,0.00
2023-07-10T02:00:55.386Z,0.00
2023-07-10T02:01:55.400Z,0.00
2023-07-10T02:02:55.460Z,0.00
2023-07-10T02:03:55.494Z,0.00
2023-07-10T02:04:55.406Z,0.00
2023-07-10T02:05:55.522Z,0.00
2023-07-10T02:06:55.445Z,0.00
2023-07-10T02:07:55.461Z,0.00
2023-07-10T02:08:55.491Z,0.00
2023-07-10T02:09:55.505Z,0.00
2023-07-10T02:10:55.554Z,0.00
2023-07-10T02:11:55.503Z,0.00
2023-07-10T02:12:55.533Z,0.00
2023-07-10T02:13:55.573Z,0.00
2023-07-10T02:14:55.543Z,0.00
2023-07-10T02:15:55.571Z,0.00
2023-07-10T02:16:55.619Z,0.00
2023-07-10T02:17:55.634Z,0.00
2023-07-10T02:18:55.621Z,0.00
2023-07-10T02:19:55.652Z,0.00
2023-07-10T02:20:55.683Z,0.00
2023-07-10T02:21:55.683Z,0.00
2023-07-10T02:22:55.684Z,0.00
2023-07-10T02:23:55.703Z,0.00
2023-07-10T02:24:55.734Z,0.00
2023-07-10T02:25:55.777Z,0.00
2023-07-10T02:26:55.758Z,0.00
2023-07-10T02:27:55.772Z,0.00
2023-07-10T02:28:55.784Z,0.00
2023-07-10T02:29:55.800Z,0.00
2023-07-10T02:30:55.832Z,0.00
2023-07-10T02:31:55.933Z,0.00
2023-07-10T02:32:55.893Z,0.00
2023-07-10T02:33:55.846Z,0.00
2023-07-10T02:34:55.836Z,0.00
2023-07-10T02:35:55.908Z,0.00
2023-07-10T02:36:55.866Z,0.00
2023-07-10T02:37:55.935Z,0.00
2023-07-10T02:38:55.900Z,0.00
2023-07-10T02:39:55.916Z,0.00
2023-07-10T02:40:55.971Z,0.00
2023-07-10T02:41:55.961Z,0.00
2023-07-10T02:42:55.949Z,0.00
2023-07-10T02:43:55.976Z,0.00
2023-07-10T02:44:55.984Z,0.00
2023-07-10T02:45:56.106Z,0.00
2023-07-10T02:46:56.009Z,0.00
2023-07-10T02:47:56.045Z,1.00
2023-07-10T02:48:56.034Z,1.00
2023-07-10T02:49:56.081Z,1.00
2023-07-10T02:50:56.103Z,1.00
2023-07-10T02:51:56.123Z,2.00
2023-07-10T02:52:56.148Z,1.00
2023-07-10T02:53:56.196Z,1.00
2023-07-10T02:54:56.155Z,2.00
2023-07-10T02:55:56.191Z,2.00
2023-07-10T02:56:56.159Z,2.00
2023-07-10T02:57:56.200Z,2.00
2023-07-10T02:58:56.171Z,3.00
2023-07-10T02:59:56.188Z,3.00
2023-07-10T03:00:56.232Z,4.00
2023-07-10T03:01:56.224Z,4.00
2023-07-10T03:02:56.278Z,5.00
2023-07-10T03:03:56.258Z,6.00
2023-07-10T03:04:56.333Z,6.00
2023-07-10T03:05:56.334Z,7.00
2023-07-10T03:06:56.296Z,8.00
2023-07-10T03:07:56.303Z,9.00
2023-07-10T03:08:56.331Z,11.00
2023-07-10T03:09:56.387Z,11.00
2023-07-10T03:10:56.381Z,13.00
2023-07-10T03:11:56.347Z,14.00
2023-07-10T03:12:56.370Z,17.00
2023-07-10T03:13:56.465Z,18.00
2023-07-10T03:14:56.520Z,20.00
2023-07-10T03:15:56.501Z,21.00
2023-07-10T03:16:56.427Z,23.00
2023-07-10T03:17:56.544Z,26.00
2023-07-10T03:18:56.452Z,28.00
2023-07-10T03:19:56.452Z,30.00
2023-07-10T03:20:56.480Z,32.00
2023-07-10T03:21:56.461Z,34.00
2023-07-10T03:22:56.465Z,37.00
2023-07-10T03:23:56.478Z,39.00
2023-07-10T03:24:56.475Z,42.00
2023-07-10T03:25:56.522Z,45.00
2023-07-10T03:26:56.496Z,48.00
2023-07-10T03:27:56.503Z,52.00
2023-07-10T03:28:56.532Z,57.00
2023-07-10T03:29:56.543Z,61.00
2023-07-10T03:30:56.643Z,66.00
2023-07-10T03:31:56.552Z,73.00
2023-07-10T03:32:56.613Z,79.00
2023-07-10T03:33:56.580Z,85.00
2023-07-10T03:34:56.603Z,90.00
2023-07-10T03:35:56.625Z,96.00
2023-07-10T03:36:56.643Z,102.00
2023-07-10T03:37:56.664Z,108.00
2023-07-10T03:38:56.712Z,112.00
2023-07-10T03:39:56.676Z,118.00
2023-07-10T03:40:56.663Z,127.00
2023-07-10T03:41:56.687Z,140.00
2023-07-10T03:42:56.664Z,158.00
2023-07-10T03:43:56.704Z,181.00
2023-07-10T03:44:56.648Z,201.00
2023-07-10T03:45:56.670Z,222.00
2023-07-10T03:46:56.695Z,242.00
2023-07-10T03:47:56.735Z,267.00
2023-07-10T03:48:56.715Z,296.00
2023-07-10T03:49:56.684Z,326.00
2023-07-10T03:50:56.678Z,347.00
2023-07-10T03:51:56.669Z,359.00
2023-07-10T03:52:56.658Z,359.00
2023-07-10T03:53:56.646Z,343.00
2023-07-10T03:54:56.681Z,325.00
2023-07-10T03:55:56.697Z,306.00
2023-07-10T03:56:56.690Z,287.00
2023-07-10T03:57:56.700Z,273.00
2023-07-10T03:58:56.684Z,263.00
2023-07-10T03:59:56.660Z,257.00
2023-07-10T04:00:58.063Z,252.00
2023-07-10T04:01:56.699Z,251.00
2023-07-10T04:02:56.769Z,255.00
2023-07-10T04:03:56.767Z,262.00
2023-07-10T04:04:56.752Z,266.00
2023-07-10T04:05:56.786Z,265.00
2023-07-10T04:06:56.853Z,260.00
2023-07-10T04:07:56.790Z,253.00
2023-07-10T04:08:56.791Z,246.00
2023-07-10T04:09:56.779Z,236.00
2023-07-10T04:10:56.791Z,228.00
2023-07-10T04:11:56.785Z,222.00
2023-07-10T04:12:56.776Z,215.00
2023-07-10T04:13:56.826Z,211.00
2023-07-10T04:14:56.782Z,209.00
2023-07-10T04:15:56.771Z,208.00
2023-07-10T04:16:56.815Z,210.00
2023-07-10T04:17:56.836Z,212.00
2023-07-10T04:18:56.834Z,214.00
2023-07-10T04:19:56.803Z,218.00
2023-07-10T04:20:56.787Z,223.00
2023-07-10T04:21:56.791Z,227.00
2023-07-10T04:22:56.787Z,228.00
2023-07-10T04:23:56.771Z,225.00
2023-07-10T04:24:56.789Z,216.00
2023-07-10T04:25:56.779Z,208.00
2023-07-10T04:26:56.818Z,205.00
2023-07-10T04:27:56.833Z,204.00
2023-07-10T04:28:56.821Z,204.00
2023-07-10T04:29:56.837Z,209.00
2023-07-10T04:30:56.936Z,215.00
2023-07-10T04:31:56.841Z,220.00
2023-07-10T04:32:56.848Z,226.00
2023-07-10T04:33:56.831Z,234.00
2023-07-10T04:34:56.824Z,243.00
2023-07-10T04:35:56.861Z,255.00
2023-07-10T04:36:56.847Z,270.00
2023-07-10T04:37:56.828Z,288.00
2023-07-10T04:38:56.818Z,308.00
2023-07-10T04:39:56.843Z,330.00
2023-07-10T04:40:56.887Z,354.00
2023-07-10T04:41:56.878Z,374.00
2023-07-10T04:42:56.901Z,391.00
2023-07-10T04:43:56.893Z,408.00
2023-07-10T04:44:56.880Z,422.00
2023-07-10T04:45:56.905Z,437.00
2023-07-10T04:46:56.925Z,454.00
2023-07-10T04:47:56.966Z,469.00
2023-07-10T04:48:56.897Z,485.00
2023-07-10T04:49:56.882Z,502.00
2023-07-10T04:50:56.883Z,517.00
2023-07-10T04:51:56.907Z,533.00
2023-07-10T04:52:56.937Z,551.00
2023-07-10T04:53:56.921Z,569.00
2023-07-10T04:54:56.936Z,589.00
2023-07-10T04:55:56.932Z,610.00
2023-07-10T04:56:56.953Z,632.00
2023-07-10T04:57:57.001Z,643.00
2023-07-10T04:58:56.984Z,658.00
2023-07-10T04:59:56.982Z,707.00
2023-07-10T05:02:23.151Z,751.00
2023-07-10T05:03:22.911Z,764.00
2023-07-10T05:04:22.931Z,774.00
2023-07-10T05:05:22.907Z,782.00
2023-07-10T05:06:22.921Z,790.00
2023-07-10T05:07:22.934Z,802.00
2023-07-10T05:08:22.964Z,814.00
2023-07-10T05:09:22.951Z,828.00
2023-07-10T05:10:22.973Z,841.00
2023-07-10T05:11:23.014Z,871.00
2023-07-10T05:12:23.037Z,928.00
2023-07-10T05:13:23.021Z,993.00
2023-07-10T05:14:23.033Z,1081.00
2023-07-10T05:15:23.029Z,1206.00
2023-07-10T05:16:23.051Z,1317.00
2023-07-10T05:17:23.055Z,1319.00
2023-07-10T05:18:23.060Z,1236.00
2023-07-10T05:19:23.020Z,1137.00
2023-07-10T05:20:23.032Z,1090.00
2023-07-10T05:21:23.066Z,1112.00
2023-07-10T05:22:23.074Z,1221.00
2023-07-10T05:23:23.044Z,1313.00
2023-07-10T05:24:23.073Z,1294.00
2023-07-10T05:25:23.060Z,1188.00
2023-07-10T05:26:23.101Z,1080.00
2023-07-10T05:27:23.101Z,1044.00
2023-07-10T05:28:23.085Z,957.00
2023-07-10T05:29:23.110Z,893.00
2023-07-10T05:30:23.123Z,862.00
2023-07-10T05:31:23.142Z,857.00
2023-07-10T05:32:23.185Z,870.00
2023-07-10T05:33:23.132Z,877.00
2023-07-10T05:34:23.224Z,879.00
2023-07-10T05:35:23.160Z,885.00
2023-07-10T05:36:23.221Z,920.00
2023-07-10T05:37:23.208Z,942.00
2023-07-10T05:38:23.196Z,947.00
2023-07-10T05:39:23.232Z,953.00
2023-07-10T05:40:23.218Z,976.00
2023-07-10T05:41:23.218Z,1013.00
2023-07-10T05:42:23.195Z,1063.00
2023-07-10T05:43:23.312Z,1151.00
2023-07-10T05:44:23.201Z,1338.00
2023-07-10T05:45:23.185Z,1637.00
2023-07-10T05:46:23.234Z,1973.00
2023-07-10T05:47:23.255Z,2202.00
2023-07-10T05:48:23.229Z,2338.00
2023-07-10T05:49:23.237Z,2365.00
2023-07-10T05:50:23.260Z,2374.00
2023-07-10T05:51:23.257Z,2354.00
2023-07-10T05:52:23.230Z,2403.00
2023-07-10T05:53:23.246Z,2414.00
2023-07-10T05:54:23.234Z,2423.00
2023-07-10T05:55:23.250Z,2478.00
2023-07-10T05:56:23.286Z,2490.00
2023-07-10T05:57:23.275Z,2469.00
2023-07-10T05:58:23.269Z,2430.00
2023-07-10T05:59:23.254Z,2295.00
2023-07-10T06:00:23.285Z,2216.00
2023-07-10T06:01:23.379Z,2065.00
2023-07-10T06:02:23.398Z,1932.00
2023-07-10T06:03:23.373Z,1826.00
2023-07-10T06:04:23.322Z,1788.00
2023-07-10T06:05:23.354Z,1814.00
2023-07-10T06:06:23.414Z,1955.00
2023-07-10T06:07:23.363Z,2063.00
2023-07-10T06:08:23.347Z,2115.00
2023-07-10T06:09:23.347Z,2146.00
2023-07-10T06:10:23.333Z,2115.00
2023-07-10T06:11:23.360Z,2012.00
2023-07-10T06:12:23.383Z,1890.00
2023-07-10T06:13:23.425Z,1876.00
2023-07-10T06:14:23.439Z,1905.00
2023-07-10T06:15:23.428Z,1922.00
2023-07-10T06:16:23.519Z,2056.00
2023-07-10T06:17:23.486Z,2309.00
2023-07-10T06:18:23.465Z,2493.00
2023-07-10T06:19:23.480Z,2570.00
2023-07-10T06:20:23.490Z,2660.00
2023-07-10T06:21:23.430Z,2847.00
2023-07-10T06:22:23.445Z,3061.00
2023-07-10T06:23:23.438Z,2977.00
2023-07-10T06:24:23.482Z,2626.00
2023-07-10T06:25:23.493Z,2076.00
2023-07-10T06:26:23.516Z,1695.00
2023-07-10T06:27:23.511Z,1496.00
2023-07-10T06:28:23.557Z,1375.00
2023-07-10T06:29:23.674Z,1245.00
2023-07-10T06:30:23.519Z,1198.00
2023-07-10T06:31:23.589Z,1199.00
2023-07-10T06:32:23.588Z,1153.00
2023-07-10T06:33:23.545Z,1041.00
2023-07-10T06:34:23.579Z,1050.00
2023-07-10T06:35:23.580Z,1181.00
2023-07-10T06:36:23.598Z,1307.00
2023-07-10T06:37:23.610Z,1428.00
2023-07-10T06:38:23.639Z,1567.00
2023-07-10T06:39:23.625Z,1735.00
2023-07-10T06:40:23.619Z,1867.00
2023-07-10T06:41:23.653Z,2014.00
2023-07-10T06:42:23.714Z,2048.00
2023-07-10T06:43:23.757Z,2002.00
2023-07-10T06:44:23.743Z,2022.00
2023-07-10T06:45:23.684Z,2138.00
2023-07-10T06:46:23.723Z,2281.00
2023-07-10T06:47:23.970Z,2238.00
2023-07-10T06:48:23.713Z,1882.00
2023-07-10T06:49:23.726Z,1569.00
2023-07-10T06:50:23.717Z,1383.00
2023-07-10T06:51:23.717Z,1336.00
2023-07-10T06:52:23.705Z,1346.00
2023-07-10T06:53:27.184Z,1384.00
2023-07-10T06:54:23.819Z,1403.00
2023-07-10T06:55:23.726Z,1398.00
2023-07-10T06:56:23.737Z,1378.00
2023-07-10T06:57:23.766Z,1367.00
2023-07-10T06:58:23.777Z,1388.00
2023-07-10T06:59:23.819Z,1392.00
2023-07-10T07:00:23.879Z,1393.00
2023-07-10T07:01:23.875Z,1381.00
2023-07-10T07:02:23.846Z,1373.00
2023-07-10T07:03:23.847Z,1365.00
2023-07-10T07:04:23.868Z,1391.00
2023-07-10T07:05:26.526Z,1386.00
2023-07-10T07:06:23.905Z,1389.00
2023-07-10T07:07:24.425Z,1378.00
2023-07-10T07:08:23.924Z,1379.00
2023-07-10T07:09:23.925Z,1389.00
2023-07-10T07:10:23.970Z,1399.00
2023-07-10T07:11:23.943Z,1407.00
2023-07-10T07:12:23.943Z,1414.00
2023-07-10T07:13:23.930Z,1422.00
2023-07-10T07:14:23.954Z,1431.00
2023-07-10T07:15:23.958Z,1445.00
2023-07-10T07:16:24.015Z,1491.00
2023-07-10T07:17:24.014Z,1538.00
2023-07-10T07:18:26.006Z,1598.00
2023-07-10T07:19:24.013Z,1584.00
2023-07-10T07:20:23.999Z,1506.00
2023-07-10T07:21:24.025Z,1429.00
2023-07-10T07:22:24.011Z,1380.00
2023-07-10T07:23:24.025Z,1369.00
2023-07-10T07:24:24.001Z,1358.00
2023-07-10T07:25:24.005Z,1352.00
2023-07-10T07:26:24.013Z,1355.00
2023-07-10T07:27:24.021Z,1363.00
2023-07-10T07:28:23.982Z,1378.00
2023-07-10T07:29:23.997Z,1394.00
2023-07-10T07:30:23.982Z,1402.00
2023-07-10T07:31:24.045Z,1406.00
2023-07-10T07:32:24.070Z,1420.00
2023-07-10T07:33:24.058Z,1440.00
2023-07-10T07:34:24.052Z,1453.00
2023-07-10T07:35:24.065Z,1461.00
2023-07-10T07:36:24.047Z,1468.00
2023-07-10T07:37:24.070Z,1473.00
2023-07-10T07:38:24.057Z,1481.00
2023-07-10T07:39:24.069Z,1495.00
2023-07-10T07:40:24.121Z,1506.00
2023-07-10T07:41:24.093Z,1515.00
2023-07-10T07:42:24.139Z,1531.00
2023-07-10T07:43:24.135Z,1542.00
2023-07-10T07:44:24.129Z,1550.00
2023-07-10T07:45:24.141Z,1552.00
2023-07-10T07:46:24.143Z,1558.00
2023-07-10T07:47:24.245Z,1567.00
2023-07-10T07:48:24.209Z,1573.00
2023-07-10T07:49:24.149Z,1580.00
2023-07-10T07:50:24.140Z,1587.00
2023-07-10T07:51:24.130Z,1602.00
2023-07-10T07:52:24.191Z,1620.00
2023-07-10T07:53:24.190Z,1632.00
2023-07-10T07:54:26.384Z,1648.00
2023-07-10T07:55:25.061Z,1660.00
2023-07-10T07:56:24.216Z,1673.00
2023-07-10T07:57:24.280Z,1695.00
2023-07-10T07:58:24.279Z,1719.00
2023-07-10T07:59:24.242Z,1743.00
2023-07-10T08:00:26.494Z,1770.00
2023-07-10T08:01:24.274Z,1801.00
2023-07-10T08:02:24.261Z,1830.00
2023-07-10T08:03:24.427Z,1859.00
2023-07-10T08:04:24.401Z,1898.00
2023-07-10T08:05:35.702Z,1933.00
2023-07-10T08:06:24.395Z,1961.00
2023-07-10T08:07:24.378Z,1984.00
2023-07-10T08:08:24.489Z,2004.00
2023-07-10T08:09:24.373Z,2013.00
2023-07-10T08:10:24.453Z,2016.00
2023-07-10T08:11:24.394Z,2022.00
2023-07-10T08:12:24.415Z,2024.00
2023-07-10T08:13:24.611Z,2028.00
2023-07-10T08:14:24.464Z,2036.00
2023-07-10T08:15:24.472Z,2051.00
2023-07-10T08:16:24.524Z,2069.00
2023-07-10T08:17:24.530Z,2085.00
2023-07-10T08:18:24.528Z,2109.00
2023-07-10T08:19:24.573Z,2135.00
2023-07-10T08:20:24.574Z,2160.00
2023-07-10T08:21:24.522Z,2188.00
2023-07-10T08:22:24.494Z,2226.00
2023-07-10T08:23:24.533Z,2253.00
2023-07-10T08:24:24.529Z,2275.00
2023-07-10T08:25:24.572Z,2301.00
2023-07-10T08:26:24.516Z,2319.00
2023-07-10T08:28:24.552Z,2353.00
2023-07-10T08:29:24.583Z,2362.00
2023-07-10T08:30:24.600Z,2371.00
2023-07-10T08:31:24.747Z,2377.00
2023-07-10T08:32:24.600Z,2374.00
2023-07-10T08:33:24.584Z,2373.00
2023-07-10T08:34:24.653Z,2377.00
2023-07-10T08:35:24.622Z,2381.00
2023-07-10T08:36:24.611Z,2391.00
2023-07-10T08:37:24.606Z,2395.00
2023-07-10T08:38:24.598Z,2384.00
2023-07-10T08:39:24.616Z,2372.00
2023-07-10T08:40:24.640Z,2361.00
2023-07-10T08:41:24.670Z,2338.00
2023-07-10T08:42:24.723Z,2315.00
2023-07-10T08:43:24.706Z,2289.00
2023-07-10T08:44:24.728Z,2283.00
2023-07-10T08:45:24.753Z,2280.00
2023-07-10T08:46:24.853Z,2270.00
2023-07-10T08:47:24.829Z,2247.00
2023-07-10T08:48:24.828Z,2228.00
2023-07-10T08:49:24.798Z,2222.00
2023-07-10T08:50:24.827Z,2222.00
2023-07-10T08:51:24.850Z,2222.00
2023-07-10T08:52:24.839Z,2225.00
2023-07-10T08:53:24.814Z,2226.00
2023-07-10T08:54:24.807Z,2227.00
2023-07-10T08:55:24.802Z,2234.00
2023-07-10T08:56:24.843Z,2234.00
2023-07-10T08:57:24.818Z,2236.00
2023-07-10T08:58:24.853Z,2220.00
2023-07-10T08:59:24.835Z,2212.00
2023-07-10T09:00:24.821Z,2206.00
2023-07-10T09:01:24.903Z,2212.00
2023-07-10T09:02:24.896Z,2213.00
2023-07-10T09:03:24.812Z,2228.00
2023-07-10T09:04:24.845Z,2240.00
2023-07-10T09:05:24.852Z,2256.00
2023-07-10T09:06:24.836Z,2293.00
2023-07-10T09:07:24.836Z,2329.00
2023-07-10T09:08:24.811Z,2364.00
2023-07-10T09:09:24.862Z,2398.00
2023-07-10T09:10:24.855Z,2428.00
2023-07-10T09:11:24.873Z,2439.00
2023-07-10T09:12:24.889Z,2448.00
2023-07-10T09:13:24.910Z,2463.00
2023-07-10T09:14:24.999Z,2501.00
2023-07-10T09:15:24.926Z,2532.00
2023-07-10T09:16:25.073Z,2551.00
2023-07-10T09:17:24.979Z,2571.00
2023-07-10T09:18:24.987Z,2580.00
2023-07-10T09:19:25.002Z,2628.00
2023-07-10T09:20:25.012Z,2607.00
2023-07-10T09:21:25.002Z,2499.00
2023-07-10T09:22:25.017Z,2505.00
2023-07-10T09:23:25.040Z,2520.00
2023-07-10T09:24:25.016Z,2599.00
2023-07-10T09:25:25.051Z,2652.00
2023-07-10T09:26:25.079Z,2683.00
2023-07-10T09:27:25.065Z,2872.00
2023-07-10T09:28:25.077Z,2869.00
2023-07-10T09:29:25.051Z,2736.00
2023-07-10T09:30:25.067Z,2721.00
2023-07-10T09:31:25.060Z,2736.00
2023-07-10T09:32:25.113Z,2807.00
2023-07-10T09:33:25.064Z,3040.00
2023-07-10T09:34:25.123Z,3057.00
2023-07-10T09:35:25.124Z,3031.00
2023-07-10T09:36:25.112Z,3199.00
2023-07-10T09:37:25.095Z,3555.00
2023-07-10T09:38:25.124Z,4390.00
2023-07-10T09:39:25.115Z,4867.00
2023-07-10T09:40:25.147Z,4746.00
2023-07-10T09:41:25.171Z,4625.00
2023-07-10T09:42:25.156Z,4273.00
2023-07-10T09:43:25.186Z,4192.00
2023-07-10T09:44:25.174Z,3859.00
2023-07-10T09:45:25.179Z,3995.00
2023-07-10T09:46:25.237Z,4132.00
2023-07-10T09:47:25.196Z,4473.00
2023-07-10T09:48:25.166Z,4272.00
2023-07-10T09:49:25.204Z,3980.00
2023-07-10T09:50:25.242Z,3561.00
2023-07-10T09:51:25.211Z,3542.00
2023-07-10T09:52:25.245Z,3769.00
2023-07-10T09:53:25.220Z,3902.00
2023-07-10T09:54:25.237Z,3864.00
2023-07-10T09:55:25.236Z,4647.00
2023-07-10T09:56:25.245Z,4549.00
2023-07-10T09:57:25.244Z,4204.00
2023-07-10T09:58:25.266Z,4001.00
2023-07-10T09:59:25.285Z,3827.00
2023-07-10T10:00:25.314Z,3598.00
2023-07-10T10:01:25.393Z,3924.00
2023-07-10T10:02:25.416Z,4187.00
2023-07-10T10:03:25.400Z,4393.00
2023-07-10T10:04:25.363Z,4222.00
2023-07-10T10:05:25.389Z,4024.00
2023-07-10T10:06:25.438Z,4276.00
2023-07-10T10:07:25.427Z,4695.00
2023-07-10T10:08:25.436Z,4103.00
2023-07-10T10:09:25.459Z,4337.00
2023-07-10T10:10:25.503Z,4452.00
2023-07-10T10:11:25.472Z,4325.00
2023-07-10T10:12:25.476Z,5010.00
2023-07-10T10:13:26.993Z,5420.00
2023-07-10T10:14:25.513Z,4231.00
2023-07-10T10:15:25.516Z,4166.00
2023-07-10T10:16:25.509Z,4583.00
2023-07-10T10:17:25.565Z,5366.00
2023-07-10T10:18:25.580Z,5058.00
2023-07-10T10:19:25.535Z,4262.00
2023-07-10T10:20:25.514Z,4896.00
2023-07-10T10:21:25.529Z,4380.00
2023-07-10T10:22:25.585Z,4357.00
2023-07-10T10:23:25.551Z,4453.00
2023-07-10T10:24:25.581Z,4915.00
2023-07-10T10:25:25.567Z,4430.00
2023-07-10T10:26:25.565Z,4028.00
2023-07-10T10:27:25.556Z,3776.00
2023-07-10T10:28:25.572Z,3841.00
2023-07-10T10:29:25.606Z,3986.00
2023-07-10T10:30:25.591Z,3943.00
2023-07-10T10:31:25.630Z,3961.00
2023-07-10T10:32:25.642Z,3823.00
2023-07-10T10:33:25.580Z,4010.00
2023-07-10T10:34:25.615Z,3959.00
2023-07-10T10:35:25.590Z,3690.00
2023-07-10T10:36:25.588Z,3621.00
2023-07-10T10:37:25.601Z,3720.00
2023-07-10T10:38:25.652Z,3885.00
2023-07-10T10:39:25.637Z,3941.00
2023-07-10T10:40:25.626Z,3951.00
2023-07-10T10:41:25.625Z,4013.00
2023-07-10T10:42:25.641Z,4365.00
2023-07-10T10:43:25.699Z,4284.00
2023-07-10T10:44:25.666Z,3985.00
2023-07-10T10:45:25.665Z,3973.00
2023-07-10T10:46:25.675Z,4127.00
2023-07-10T10:47:25.697Z,4245.00
2023-07-10T10:48:25.662Z,4290.00
2023-07-10T10:49:25.721Z,4606.00
2023-07-10T10:50:25.717Z,4589.00
2023-07-10T10:51:25.706Z,4940.00
2023-07-10T10:52:25.729Z,5184.00
2023-07-10T10:53:25.757Z,5025.00
2023-07-10T10:54:33.186Z,4780.00
2023-07-10T10:55:25.759Z,5425.00
2023-07-10T10:56:25.758Z,5415.00
2023-07-10T10:57:25.762Z,5055.00
2023-07-10T10:58:26.629Z,5108.00
2023-07-10T10:59:25.882Z,5816.00
2023-07-10T11:00:25.780Z,5878.00
2023-07-10T11:01:25.830Z,6213.00
2023-07-10T11:02:25.804Z,6693.00
2023-07-10T11:03:25.888Z,6190.00
2023-07-10T11:04:25.798Z,6034.00
2023-07-10T11:05:25.816Z,6160.00
2023-07-10T11:06:25.811Z,4382.00
2023-07-10T11:07:25.802Z,3432.00
2023-07-10T11:08:27.917Z,4297.00
2023-07-10T11:09:25.817Z,5421.00
2023-07-10T11:10:25.863Z,5815.00
2023-07-10T11:11:25.824Z,5909.00
2023-07-10T11:12:25.848Z,5292.00
2023-07-10T11:13:25.927Z,4535.00
2023-07-10T11:14:26.621Z,4420.00
2023-07-10T11:15:25.889Z,4377.00
2023-07-10T11:16:25.921Z,4258.00
2023-07-10T11:17:25.940Z,4425.00
2023-07-10T11:18:25.974Z,4507.00
2023-07-10T11:19:25.929Z,4543.00
2023-07-10T11:20:25.944Z,4630.00
2023-07-10T11:21:25.957Z,4610.00
2023-07-10T11:22:25.985Z,4565.00
2023-07-10T11:23:25.975Z,5313.00
2023-07-10T11:24:25.974Z,5780.00
2023-07-10T11:25:25.954Z,5854.00
2023-07-10T11:26:26.011Z,5863.00
2023-07-10T11:27:25.987Z,5489.00
2023-07-10T11:28:26.018Z,480.00
2023-07-10T11:29:25.997Z,516.00
2023-07-10T11:30:25.980Z,509.00
2023-07-10T11:31:26.039Z,508.00
2023-07-10T11:32:26.036Z,509.00
2023-07-10T11:33:26.010Z,474.00
2023-07-10T11:34:26.040Z,436.00
2023-07-10T11:35:26.063Z,412.00
2023-07-10T11:36:26.106Z,418.00
2023-07-10T11:37:26.075Z,408.00
2023-07-10T11:38:26.110Z,417.00
2023-07-10T11:39:26.137Z,429.00
2023-07-10T11:40:26.141Z,432.00
2023-07-10T11:41:26.127Z,462.00
2023-07-10T11:42:27.241Z,483.00
2023-07-10T11:43:26.158Z,472.00
2023-07-10T11:44:26.141Z,440.00
2023-07-10T11:45:26.155Z,423.00
2023-07-10T11:46:26.170Z,418.00
2023-07-10T11:47:26.224Z,420.00
2023-07-10T11:48:26.158Z,428.00
2023-07-10T11:49:26.195Z,426.00
2023-07-10T11:50:26.265Z,424.00
2023-07-10T11:51:26.225Z,435.00
2023-07-10T11:52:26.202Z,457.00
2023-07-10T11:53:26.194Z,478.00
2023-07-10T11:54:26.213Z,489.00
2023-07-10T11:55:26.287Z,475.00
2023-07-10T11:56:27.140Z,469.00
2023-07-10T11:57:26.297Z,470.00
2023-07-10T11:58:26.329Z,470.00
2023-07-10T11:59:26.309Z,474.00
2023-07-10T12:00:26.335Z,481.00
2023-07-10T12:01:26.358Z,515.00
2023-07-10T12:02:26.381Z,515.00
2023-07-10T12:03:26.395Z,517.00
2023-07-10T12:04:26.379Z,537.00
2023-07-10T12:05:27.158Z,551.00
2023-07-10T12:06:26.437Z,548.00
2023-07-10T12:07:26.455Z,534.00
2023-07-10T12:08:26.444Z,538.00
2023-07-10T12:09:26.460Z,515.00
2023-07-10T12:10:26.474Z,519.00
2023-07-10T12:11:26.502Z,505.00
2023-07-10T12:12:26.486Z,5148.00
2023-07-10T12:13:26.601Z,5861.00
2023-07-10T12:14:26.548Z,5314.00
2023-07-10T12:15:26.526Z,4816.00
2023-07-10T12:16:36.777Z,4571.00
2023-07-10T12:17:40.192Z,4810.00
2023-07-10T12:18:26.753Z,5471.00
2023-07-10T12:19:26.655Z,5322.00
2023-07-10T12:20:26.594Z,5600.00
2023-07-10T12:21:26.605Z,5641.00
2023-07-10T12:22:26.642Z,5104.00
2023-07-10T12:23:26.649Z,4993.00
2023-07-10T12:24:26.685Z,5206.00
2023-07-10T12:25:26.687Z,5462.00
2023-07-10T12:27:14.839Z,6107.00
2023-07-10T12:28:28.760Z,6180.00
2023-07-10T12:29:26.854Z,5348.00
2023-07-10T12:30:26.784Z,5668.00
2023-07-10T12:31:26.846Z,5908.00
2023-07-10T12:32:26.789Z,5975.00
2023-07-10T12:33:26.771Z,5679.00